Time;durP1;ratioP1;P1;durP2;ratioP2;P2;SDS_P1;SDS_P2;PMS_P1;PMS_P2;Temp;Humidity;BMP_temperature;BMP_pressure;BME280_temperature;BME280_humidity;BME280_pressure;Samples;Min_cycle;Max_cycle;Signal;HPM_P1;HPM_P2
2022/04/08 00:01:58;;;;;;;2.30;2.13;;;;;;;8.02;100.00;89662.34;4991310;28;20113;-67
2022/04/08 00:04:24;;;;;;;2.33;2.10;;;;;;;8.02;100.00;89667.63;4991297;28;20037;-67
2022/04/08 00:06:49;;;;;;;3.15;1.90;;;;;;;8.07;100.00;89668.25;4991466;28;20045;-68
2022/04/08 00:09:15;;;;;;;2.13;1.88;;;;;;;8.07;100.00;89675.41;4991175;28;20029;-67
2022/04/08 00:11:40;;;;;;;4.40;2.28;;;;;;;8.00;100.00;89669.84;4989870;28;20503;-67
2022/04/08 00:14:06;;;;;;;5.28;2.42;;;;;;;7.97;100.00;89678.44;4991200;28;20108;-67
2022/04/08 00:16:31;;;;;;;2.30;2.20;;;;;;;7.92;100.00;89683.94;4991223;28;20496;-67
2022/04/08 00:18:57;;;;;;;2.22;2.03;;;;;;;7.87;100.00;89689.41;4991198;28;20026;-67
2022/04/08 00:21:25;;;;;;;3.22;2.03;;;;;;;7.93;100.00;89701.38;4991884;28;20354;-67
2022/04/08 00:23:51;;;;;;;2.38;2.13;;;;;;;7.81;100.00;89696.78;4994884;28;20467;-67
2022/04/08 00:26:17;;;;;;;2.55;2.35;;;;;;;7.89;100.00;89705.72;4994513;28;20527;-67
2022/04/08 00:28:42;;;;;;;2.45;2.25;;;;;;;7.82;100.00;89704.38;4994910;28;20018;-67
2022/04/08 00:31:08;;;;;;;2.33;2.13;;;;;;;7.78;100.00;89710.66;4994595;28;20487;-67
2022/04/08 00:33:33;;;;;;;2.88;2.47;;;;;;;7.69;100.00;89713.34;4994671;28;20113;-66
2022/04/08 00:35:59;;;;;;;3.40;2.55;;;;;;;7.71;100.00;89713.78;4992764;28;20089;-67
2022/04/08 00:38:25;;;;;;;4.03;2.33;;;;;;;7.75;100.00;89711.28;4994234;28;20101;-68
2022/04/08 00:40:50;;;;;;;2.55;2.30;;;;;;;7.87;100.00;89714.00;4994514;28;20451;-68
2022/04/08 00:43:18;;;;;;;2.75;2.45;;;;;;;7.85;100.00;89724.16;4994342;28;20117;-67
2022/04/08 00:45:44;;;;;;;3.58;2.22;;;;;;;7.77;100.00;89714.41;4994399;28;20034;-68
2022/04/08 00:48:10;;;;;;;2.55;2.35;;;;;;;7.74;100.00;89712.41;4994313;28;20052;-67
2022/04/08 00:50:37;;;;;;;2.83;2.55;;;;;;;7.88;100.00;89731.44;4994243;28;20037;-68
2022/04/08 00:53:07;;;;;;;4.60;2.60;;;;;;;7.84;100.00;89725.25;4994396;28;20026;-67
2022/04/08 00:55:34;;;;;;;4.97;2.53;;;;;;;7.84;100.00;89730.53;4994240;28;20113;-67
2022/04/08 00:58:04;;;;;;;2.40;2.20;;;;;;;7.90;100.00;89741.72;4994128;28;20042;-67
2022/04/08 01:00:35;;;;;;;3.15;2.72;;;;;;;7.92;100.00;89745.59;4994195;28;20092;-67
2022/04/08 01:03:02;;;;;;;2.33;2.13;;;;;;;7.97;100.00;89726.88;4994191;28;20041;-66
2022/04/08 01:05:27;;;;;;;3.70;2.53;;;;;;;8.00;100.00;89739.47;4993676;28;20030;-66
2022/04/08 01:07:54;;;;;;;3.58;2.70;;;;;;;7.89;100.00;89740.97;4994023;28;20033;-67
2022/04/08 01:10:20;;;;;;;5.63;2.75;;;;;;;7.74;100.00;89746.81;4992610;28;20037;-67
2022/04/08 01:12:45;;;;;;;3.38;2.75;;;;;;;7.58;100.00;89737.84;4993951;28;20030;-66
2022/04/08 01:15:11;;;;;;;3.13;2.80;;;;;;;7.60;100.00;89746.25;4993953;28;20057;-67
2022/04/08 01:17:37;;;;;;;3.63;2.33;;;;;;;7.65;100.00;89746.06;4993818;28;20030;-67
2022/04/08 01:20:03;;;;;;;5.07;2.70;;;;;;;7.67;100.00;89733.28;4992654;28;20033;-67
2022/04/08 01:22:29;;;;;;;4.88;2.78;;;;;;;7.66;100.00;89729.09;4993814;28;20029;-68
2022/04/08 01:25:04;;;;;;;3.72;2.70;;;;;;;7.62;100.00;89739.53;4993790;28;20034;-67
2022/04/08 01:27:31;;;;;;;3.22;2.92;;;;;;;7.64;100.00;89736.56;4993469;28;20050;-67
2022/04/08 01:29:56;;;;;;;2.80;2.60;;;;;;;7.66;100.00;89739.69;4993579;28;20050;-68
2022/04/08 01:32:22;;;;;;;4.72;2.67;;;;;;;7.59;100.00;89739.41;4993876;28;20066;-68
2022/04/08 01:34:49;;;;;;;2.85;2.50;;;;;;;7.62;100.00;89738.78;4992970;28;20500;-67
2022/04/08 01:37:16;;;;;;;2.88;2.67;;;;;;;7.71;100.00;89734.19;4993386;28;20504;-67
2022/04/08 01:39:42;;;;;;;6.03;2.95;;;;;;;7.60;100.00;89736.44;4992153;28;20412;-67
2022/04/08 01:42:08;;;;;;;4.40;2.47;;;;;;;7.57;100.00;89736.28;4993473;28;20034;-68
2022/04/08 01:44:34;;;;;;;3.03;2.80;;;;;;;7.50;100.00;89742.09;4993447;28;20034;-67
2022/04/08 01:47:18;;;;;;;3.05;2.67;;;;;;;7.42;100.00;89735.75;4993309;28;20026;-68
2022/04/08 01:49:44;;;;;;;3.25;2.88;;;;;;;7.55;100.00;89743.75;4993189;28;20030;-68
2022/04/08 01:52:09;;;;;;;3.78;2.85;;;;;;;7.60;100.00;89751.53;4993191;28;20043;-67
2022/04/08 01:54:35;;;;;;;3.95;2.50;;;;;;;7.54;100.00;89742.22;4993197;28;20018;-67
2022/04/08 01:57:00;;;;;;;3.65;2.78;;;;;;;7.54;100.00;89747.50;4993098;28;20026;-67
2022/04/08 01:59:25;;;;;;;3.30;3.00;;;;;;;7.51;100.00;89749.69;4993119;28;20027;-67
2022/04/08 02:01:51;;;;;;;4.82;2.78;;;;;;;7.55;100.00;89741.13;4993107;28;20058;-67
2022/04/08 02:04:17;;;;;;;3.13;2.50;;;;;;;7.58;100.00;89743.16;4993070;28;20101;-67
2022/04/08 02:06:42;;;;;;;3.15;2.55;;;;;;;7.68;100.00;89746.19;4992952;28;20038;-67
2022/04/08 02:09:09;;;;;;;2.65;2.15;;;;;;;7.70;100.00;89744.00;4992868;28;20022;-67
2022/04/08 02:11:35;;;;;;;4.50;3.38;;;;;;;7.70;100.00;89735.28;4992864;28;20040;-67
2022/04/08 02:14:02;;;;;;;2.80;2.60;;;;;;;7.67;100.00;89741.22;4992891;28;20395;-67
2022/04/08 02:16:27;;;;;;;3.35;2.38;;;;;;;7.62;100.00;89736.13;4992950;28;20037;-68
2022/04/08 02:18:53;;;;;;;5.35;3.00;;;;;;;7.50;100.00;89734.16;4992773;28;20042;-67
2022/04/08 02:21:19;;;;;;;6.60;4.20;;;;;;;7.40;100.00;89737.13;4992647;28;20213;-67
2022/04/08 02:23:46;;;;;;;6.75;3.50;;;;;;;7.49;100.00;89751.91;4992612;28;20042;-67
2022/04/08 02:26:13;;;;;;;2.65;2.45;;;;;;;7.38;100.00;89740.09;4992395;28;20042;-67
2022/04/08 02:28:39;;;;;;;3.03;2.30;;;;;;;7.32;100.00;89749.31;4992578;28;20123;-68
2022/04/08 02:31:05;;;;;;;5.00;2.55;;;;;;;7.36;100.00;89752.88;4992414;28;20034;-68
2022/04/08 02:35:56;;;;;;;3.38;2.50;;;;;;;7.44;100.00;89760.03;5123521;22;20062;-71
2022/04/08 02:38:21;;;;;;;3.25;2.70;;;;;;;7.38;100.00;89758.63;4992438;28;20038;-70
2022/04/08 02:40:47;;;;;;;2.83;2.50;;;;;;;7.41;100.00;89763.28;4992409;28;20030;-70
2022/04/08 02:43:12;;;;;;;3.83;3.00;;;;;;;7.48;100.00;89763.56;4992400;28;20026;-71
2022/04/08 02:45:37;;;;;;;3.90;2.97;;;;;;;7.53;100.00;89767.13;4991454;28;20022;-70
2022/04/08 02:48:03;;;;;;;3.17;2.45;;;;;;;7.33;100.00;89769.38;4992264;28;20026;-70
2022/04/08 02:50:29;;;;;;;2.78;2.58;;;;;;;7.19;100.00;89779.38;4990914;28;20634;-71
2022/04/08 02:52:54;;;;;;;3.55;3.00;;;;;;;7.00;100.00;89776.34;4992215;28;20353;-70
2022/04/08 02:55:20;;;;;;;3.55;2.40;;;;;;;6.82;100.00;89775.59;4992088;28;20131;-70
2022/04/08 02:57:46;;;;;;;3.25;2.95;;;;;;;6.68;100.00;89783.69;4992153;28;20030;-70
2022/04/08 03:00:15;;;;;;;5.07;3.50;;;;;;;6.54;100.00;89786.50;4992144;28;20596;-70
2022/04/08 03:02:42;;;;;;;5.15;3.15;;;;;;;6.45;100.00;89792.84;4992080;28;20048;-71
2022/04/08 03:05:08;;;;;;;4.15;3.60;;;;;;;6.29;100.00;89795.97;4991966;28;20476;-71
2022/04/08 03:07:34;;;;;;;4.18;2.80;;;;;;;6.19;100.00;89796.28;4990604;28;20030;-70
2022/04/08 03:10:00;;;;;;;12.32;6.10;;;;;;;6.24;100.00;89804.03;4991740;28;20034;-70
2022/04/08 03:12:25;;;;;;;7.88;4.22;;;;;;;6.29;100.00;89806.53;4991867;28;20407;-70
2022/04/08 03:14:50;;;;;;;4.45;2.55;;;;;;;6.39;100.00;89816.00;4991719;28;20027;-70
2022/04/08 03:17:16;;;;;;;3.20;2.85;;;;;;;6.51;100.00;89821.47;4991820;28;20034;-71
2022/04/08 03:19:41;;;;;;;4.80;3.10;;;;;;;6.48;100.00;89834.53;4991745;28;20030;-71
2022/04/08 03:22:07;;;;;;;3.33;2.72;;;;;;;6.47;100.00;89843.50;4991682;28;20022;-70
2022/04/08 03:24:32;;;;;;;2.90;2.20;;;;;;;6.45;100.00;89835.91;4991632;28;20031;-70
2022/04/08 03:26:58;;;;;;;3.65;2.28;;;;;;;6.40;100.00;89838.69;4991753;28;20018;-71
2022/04/08 03:29:24;;;;;;;3.50;2.20;;;;;;;6.38;100.00;89840.09;4991782;28;20461;-70
2022/04/08 03:31:49;;;;;;;4.63;2.92;;;;;;;6.50;100.00;89853.47;4991581;28;20042;-70
2022/04/08 03:34:15;;;;;;;7.43;2.92;;;;;;;6.69;100.00;89855.81;4991327;28;20057;-70
2022/04/08 03:36:40;;;;;;;4.45;2.63;;;;;;;6.61;100.00;89854.72;4991662;28;20106;-70
2022/04/08 03:39:06;;;;;;;3.92;2.53;;;;;;;6.61;100.00;89852.06;4991537;28;20113;-70
2022/04/08 03:41:31;;;;;;;5.82;2.78;;;;;;;6.54;100.00;89857.81;4991576;28;20395;-70
2022/04/08 03:43:56;;;;;;;2.75;2.00;;;;;;;6.45;100.00;89867.59;4991419;28;20038;-70
2022/04/08 03:46:22;;;;;;;2.45;1.95;;;;;;;6.34;100.00;89882.19;4991406;28;20457;-71
2022/04/08 03:48:47;;;;;;;2.90;2.20;;;;;;;6.22;100.00;89880.16;4991525;28;20041;-70
2022/04/08 03:51:13;;;;;;;2.85;2.15;;;;;;;5.99;100.00;89878.69;4991434;28;20400;-70
2022/04/08 03:53:38;;;;;;;2.05;1.77;;;;;;;6.04;100.00;89881.19;4991461;28;20141;-70
2022/04/08 03:56:05;;;;;;;3.17;2.28;;;;;;;6.00;100.00;89902.16;4991574;28;20492;-71
2022/04/08 03:58:30;;;;;;;2.60;2.20;;;;;;;5.94;100.00;89906.00;4995349;28;20064;-70
2022/04/08 04:00:56;;;;;;;4.90;1.80;;;;;;;6.00;100.00;89907.44;4995391;28;20465;-70
2022/04/08 04:03:22;;;;;;;3.28;2.05;;;;;;;6.00;100.00;89912.72;4995245;28;20348;-70
2022/04/08 04:05:47;;;;;;;2.28;1.65;;;;;;;5.94;100.00;89911.28;4995091;28;20091;-70
2022/04/08 04:08:18;;;;;;;3.83;1.75;;;;;;;5.84;100.00;89905.44;4995230;28;20034;-70
2022/04/08 04:10:45;;;;;;;2.75;2.20;;;;;;;5.86;100.00;89917.28;4995145;28;20161;-70
2022/04/08 04:13:10;;;;;;;3.97;1.80;;;;;;;5.93;100.00;89927.41;4995150;28;20045;-70
2022/04/08 04:15:36;;;;;;;4.10;2.47;;;;;;;6.10;100.00;89926.72;4995011;28;20030;-70
2022/04/08 04:18:02;;;;;;;6.88;2.38;;;;;;;6.09;100.00;89918.00;4994995;28;20084;-71
2022/04/08 04:20:27;;;;;;;5.05;2.20;;;;;;;6.11;100.00;89918.47;4994984;28;20022;-71
2022/04/08 04:22:53;;;;;;;4.78;1.80;;;;;;;6.08;100.00;89929.66;4994884;28;20026;-70
2022/04/08 04:25:19;;;;;;;5.15;2.17;;;;;;;6.03;100.00;89940.38;4994791;28;20040;-70
2022/04/08 04:27:44;;;;;;;3.45;2.10;;;;;;;6.01;100.00;89942.53;4994932;28;20062;-70
2022/04/08 04:30:10;;;;;;;5.28;3.00;;;;;;;6.06;100.00;89949.53;4994691;28;20459;-70
2022/04/08 04:32:36;;;;;;;3.72;2.05;;;;;;;6.12;100.00;89948.28;4992902;28;20097;-70
2022/04/08 04:35:06;;;;;;;5.00;3.00;;;;;;;6.24;100.00;89951.16;4994525;28;20100;-70
2022/04/08 04:37:35;;;;;;;2.88;2.20;;;;;;;6.39;100.00;89956.00;4994995;28;20058;-69
2022/04/08 04:40:02;;;;;;;4.68;1.88;;;;;;;6.41;100.00;89956.47;4994660;28;20026;-69
2022/04/08 04:42:28;;;;;;;3.20;2.55;;;;;;;7.03;100.00;89960.78;4994598;28;20491;-69
2022/04/08 04:44:55;;;;;;;4.10;2.83;;;;;;;9.12;100.00;89963.28;4994578;28;20061;-69
2022/04/08 04:47:20;;;;;;;6.82;4.20;;;;;;;11.08;100.00;89964.59;4994594;28;20058;-69
2022/04/08 04:49:46;;;;;;;1.90;1.80;;;;;;;12.42;87.70;89963.34;4994329;28;20526;-69
2022/04/08 04:52:11;;;;;;;3.78;2.35;;;;;;;13.71;78.43;89970.56;4994402;28;20108;-70
2022/04/08 04:54:37;;;;;;;6.55;3.92;;;;;;;14.50;73.23;89962.94;4992665;28;20042;-70
2022/04/08 04:57:03;;;;;;;6.78;4.18;;;;;;;15.56;66.50;89961.22;4994314;28;20026;-71
2022/04/08 04:59:29;;;;;;;9.15;6.40;;;;;;;14.97;67.99;89969.88;4992992;28;20045;-70
2022/04/08 05:01:54;;;;;;;4.38;3.53;;;;;;;15.74;62.61;89974.88;4994264;28;20038;-69
2022/04/08 05:04:20;;;;;;;6.28;4.20;;;;;;;15.18;61.80;89964.88;4993601;28;20038;-69
2022/04/08 05:06:45;;;;;;;4.57;3.58;;;;;;;14.38;63.52;89968.47;4994140;28;20093;-71
2022/04/08 05:09:11;;;;;;;3.95;2.95;;;;;;;15.34;60.28;89972.00;4992972;28;20089;-70
2022/04/08 05:11:37;;;;;;;3.67;2.47;;;;;;;15.93;56.94;89975.88;4994323;28;20088;-71
2022/04/08 05:14:02;;;;;;;3.97;2.28;;;;;;;16.47;54.75;89989.59;4993938;28;20027;-69
2022/04/08 05:16:28;;;;;;;2.83;2.28;;;;;;;16.71;54.24;89984.88;4993861;28;20034;-69
2022/04/08 05:18:54;;;;;;;2.17;1.98;;;;;;;17.51;50.49;89990.56;4993959;28;20034;-70
2022/04/08 05:21:20;;;;;;;7.40;2.63;;;;;;;18.13;49.32;89986.00;4994025;28;20407;-70
2022/04/08 05:23:45;;;;;;;3.88;3.00;;;;;;;18.02;48.49;89993.25;4993734;28;20034;-69
2022/04/08 05:26:11;;;;;;;2.53;2.00;;;;;;;18.48;46.50;89990.03;4992471;28;20112;-70
2022/04/08 05:28:36;;;;;;;2.92;2.33;;;;;;;17.94;48.48;89997.03;4993793;28;20030;-69
2022/04/08 05:31:02;;;;;;;4.18;3.03;;;;;;;17.33;52.05;90004.66;4993060;28;20407;-70
2022/04/08 05:33:27;;;;;;;4.40;4.00;;;;;;;18.37;50.67;90002.66;4993716;28;20180;-70
2022/04/08 05:35:53;;;;;;;2.80;2.58;;;;;;;20.01;47.77;90012.59;4993269;28;20042;-70
2022/04/08 05:38:19;;;;;;;3.10;2.80;;;;;;;20.62;45.54;90007.84;4993396;28;20049;-70
2022/04/08 05:40:44;;;;;;;3.50;2.90;;;;;;;20.88;44.07;90013.94;4993257;28;20504;-70
2022/04/08 05:43:10;;;;;;;3.67;3.10;;;;;;;21.59;41.74;90012.75;4993461;28;20022;-70
2022/04/08 05:45:35;;;;;;;3.63;2.83;;;;;;;20.72;40.92;90019.78;4993102;28;20026;-70
2022/04/08 05:48:05;;;;;;;4.13;2.70;;;;;;;20.43;42.06;90024.50;4993176;28;20062;-70
2022/04/08 05:50:31;;;;;;;3.63;2.75;;;;;;;20.61;42.68;90019.81;4993230;28;20026;-70
2022/04/08 05:52:57;;;;;;;4.18;2.50;;;;;;;20.30;43.23;90037.63;4993480;28;20081;-70
2022/04/08 05:55:22;;;;;;;3.45;3.03;;;;;;;21.26;41.65;90030.38;4993367;28;20037;-70
2022/04/08 05:57:48;;;;;;;3.50;3.00;;;;;;;22.47;39.55;90029.44;4992869;28;20026;-71
2022/04/08 06:00:15;;;;;;;2.90;2.70;;;;;;;22.66;38.83;90026.91;4993104;28;20033;-70
2022/04/08 06:02:47;;;;;;;25.42;4.25;;;;;;;21.89;39.12;90037.28;4993046;28;20022;-70
2022/04/08 06:05:15;;;;;;;4.97;2.70;;;;;;;22.50;38.87;90039.47;4992929;28;20453;-70
2022/04/08 06:07:58;;;;;;;5.28;2.95;;;;;;;22.48;38.92;90039.88;4992806;28;20113;-70
2022/04/08 06:10:24;;;;;;;4.53;3.50;;;;;;;22.79;39.06;90048.09;4991838;28;20030;-71
2022/04/08 06:12:51;;;;;;;4.03;3.40;;;;;;;22.85;38.46;90041.84;4992926;28;20491;-71
2022/04/08 06:15:17;;;;;;;3.30;3.00;;;;;;;21.95;39.15;90043.81;4992899;28;20084;-71
2022/04/08 06:17:43;;;;;;;5.45;2.55;;;;;;;21.38;39.19;90035.31;4992875;28;20027;-71
2022/04/08 06:20:10;;;;;;;5.57;2.95;;;;;;;21.54;39.85;90032.91;4992755;28;20491;-71
2022/04/08 06:22:39;;;;;;;4.93;2.83;;;;;;;21.30;41.13;90031.09;4992805;28;20030;-71
2022/04/08 06:25:09;;;;;;;3.30;2.40;;;;;;;22.70;37.04;90026.88;4992798;28;20034;-71
2022/04/08 06:27:34;;;;;;;11.57;3.08;;;;;;;24.29;35.76;90028.59;4992787;28;20111;-71
2022/04/08 06:30:00;;;;;;;3.78;2.35;;;;;;;21.01;39.00;90028.53;4990946;28;20034;-71
2022/04/08 06:32:25;;;;;;;6.80;2.30;;;;;;;21.19;37.15;90026.50;4992660;28;20026;-70
2022/04/08 06:34:51;;;;;;;4.80;2.28;;;;;;;21.49;38.87;90027.91;4984446;28;20081;-69
2022/04/08 06:37:16;;;;;;;3.38;2.83;;;;;;;20.77;39.27;90021.31;4994076;28;20484;-69
2022/04/08 06:39:42;;;;;;;3.30;2.20;;;;;;;20.69;39.12;90020.56;4985206;28;20037;-68
2022/04/08 06:42:07;;;;;;;5.35;2.15;;;;;;;21.12;36.81;90010.31;4972666;28;20031;-67
2022/04/08 06:44:33;;;;;;;9.60;2.10;;;;;;;20.56;38.57;90009.41;4973375;28;20114;-68
2022/04/08 06:46:59;;;;;;;5.22;2.92;;;;;;;20.93;39.20;90014.28;4971707;28;20078;-68
2022/04/08 06:49:24;;;;;;;4.03;2.13;;;;;;;20.10;38.62;90017.59;4972312;28;20109;-70
2022/04/08 06:51:53;;;;;;;2.53;1.85;;;;;;;19.72;38.74;90025.34;4972531;28;20523;-69
2022/04/08 06:54:18;;;;;;;2.40;2.20;;;;;;;19.89;38.52;90012.25;4989397;28;20045;-68
2022/04/08 06:56:44;;;;;;;4.43;2.13;;;;;;;19.69;38.52;90006.44;4991800;28;20496;-68
2022/04/08 06:59:09;;;;;;;2.60;2.00;;;;;;;19.97;38.49;90019.16;4990571;28;20042;-69
2022/04/08 07:01:35;;;;;;;4.78;2.47;;;;;;;20.37;37.58;90028.75;4991898;28;20043;-66
2022/04/08 07:04:00;;;;;;;3.40;2.60;;;;;;;20.57;39.27;90019.06;4983692;28;20038;-66
2022/04/08 07:06:25;;;;;;;2.75;2.55;;;;;;;21.16;37.85;90027.31;4972456;28;20027;-67
2022/04/08 07:08:51;;;;;;;2.50;2.30;;;;;;;21.21;36.61;90026.88;4980037;28;20050;-68
2022/04/08 07:11:16;;;;;;;4.00;2.20;;;;;;;20.78;38.06;90022.84;4982116;28;20026;-68
2022/04/08 07:13:42;;;;;;;3.45;2.30;;;;;;;20.58;38.21;90036.03;4981300;28;20022;-67
2022/04/08 07:16:08;;;;;;;3.75;2.95;;;;;;;20.39;38.55;90048.03;4979226;28;20451;-68
2022/04/08 07:18:34;;;;;;;3.72;2.30;;;;;;;20.22;38.65;90051.53;4983953;28;20080;-68
2022/04/08 07:20:59;;;;;;;2.72;2.20;;;;;;;20.67;38.72;90027.50;4984275;28;20042;-67
2022/04/08 07:23:25;;;;;;;6.00;2.72;;;;;;;20.45;40.03;90051.91;4980569;28;20026;-67
2022/04/08 07:25:50;;;;;;;5.70;3.05;;;;;;;20.53;39.69;90071.56;4984440;28;20030;-65
2022/04/08 07:28:16;;;;;;;16.77;4.03;;;;;;;20.52;38.67;90061.94;4980231;28;20512;-67
2022/04/08 07:30:41;;;;;;;9.45;5.57;;;;;;;20.11;38.79;90075.84;4979350;28;20106;-68
2022/04/08 07:33:07;;;;;;;6.90;3.58;;;;;;;20.44;39.61;90068.50;4979732;28;20033;-68
2022/04/08 07:35:33;;;;;;;7.00;2.85;;;;;;;21.17;38.27;90071.34;4978027;28;20153;-68
2022/04/08 07:38:00;;;;;;;11.15;5.60;;;;;;;20.64;39.32;90077.72;4980980;28;20023;-67
2022/04/08 07:40:26;;;;;;;2.05;1.80;;;;;;;21.40;37.68;90078.97;4973897;28;20062;-66
2022/04/08 07:42:53;;;;;;;3.63;2.33;;;;;;;20.74;37.88;90081.56;4970714;28;20023;-65
2022/04/08 07:45:18;;;;;;;6.25;2.67;;;;;;;20.72;40.03;90092.00;4981967;28;20179;-68
2022/04/08 07:47:44;;;;;;;8.57;2.75;;;;;;;21.09;38.36;90102.28;4979922;28;20555;-64
2022/04/08 07:50:12;;;;;;;11.73;7.75;;;;;;;20.75;40.11;90112.81;4984978;28;20117;-65
2022/04/08 07:52:38;;;;;;;6.93;4.07;;;;;;;19.97;40.29;90127.16;4987470;28;20041;-66
2022/04/08 07:55:05;;;;;;;7.95;3.10;;;;;;;20.74;40.18;90130.22;4986924;28;20797;-67
2022/04/08 07:57:30;;;;;;;4.35;3.15;;;;;;;21.79;38.67;90128.25;4988254;28;20080;-69
2022/04/08 07:59:56;;;;;;;3.22;2.20;;;;;;;21.70;37.31;90127.91;4988345;28;20485;-69
2022/04/08 08:02:22;;;;;;;14.00;3.00;;;;;;;21.64;38.36;90128.75;4986517;28;20189;-70
2022/04/08 08:04:49;;;;;;;6.63;3.42;;;;;;;21.73;37.82;90137.19;4972743;28;20034;-70
2022/04/08 08:07:15;;;;;;;5.80;2.67;;;;;;;20.85;38.20;90130.97;4982234;28;20034;-69
2022/04/08 08:09:40;;;;;;;7.18;2.75;;;;;;;20.95;38.45;90146.38;4976313;28;20038;-70
2022/04/08 08:12:06;;;;;;;5.65;2.35;;;;;;;22.63;36.51;90140.81;4977208;28;20022;-71
2022/04/08 08:14:31;;;;;;;3.35;2.28;;;;;;;22.17;36.43;90131.13;4977989;28;20031;-69
2022/04/08 08:16:57;;;;;;;10.80;2.53;;;;;;;23.04;35.31;90148.19;4990109;28;20522;-70
2022/04/08 08:19:23;;;;;;;5.30;2.45;;;;;;;22.00;36.70;90138.19;4990040;28;20038;-65
2022/04/08 08:21:49;;;;;;;3.97;2.47;;;;;;;21.03;38.29;90147.13;4980289;28;20023;-68
2022/04/08 08:24:14;;;;;;;4.03;2.25;;;;;;;22.57;36.17;90142.44;4982147;28;20046;-68
2022/04/08 08:26:40;;;;;;;11.10;2.88;;;;;;;21.54;37.80;90146.56;4986740;28;20092;-68
2022/04/08 08:29:05;;;;;;;7.28;2.35;;;;;;;23.06;37.37;90156.72;4979282;28;20029;-68
2022/04/08 08:31:31;;;;;;;4.80;2.10;;;;;;;20.43;38.96;90132.56;4971544;28;20037;-69
2022/04/08 08:33:57;;;;;;;4.05;1.98;;;;;;;21.81;37.84;90139.47;4983478;28;20034;-67
2022/04/08 08:36:22;;;;;;;5.65;1.92;;;;;;;22.39;35.69;90132.47;4981376;28;20030;-68
2022/04/08 08:38:49;;;;;;;4.28;2.30;;;;;;;22.70;36.49;90144.22;4984441;28;20039;-69
2022/04/08 08:41:18;;;;;;;16.25;3.08;;;;;;;22.89;36.24;90155.72;4976103;28;20515;-69
2022/04/08 08:43:44;;;;;;;10.85;3.33;;;;;;;25.02;34.70;90149.38;4981997;28;20084;-69
2022/04/08 08:46:10;;;;;;;3.83;2.10;;;;;;;23.88;35.54;90156.53;4981779;28;20105;-65
2022/04/08 08:48:38;;;;;;;7.18;2.40;;;;;;;23.01;35.29;90150.53;4974080;28;20070;-66
2022/04/08 08:51:05;;;;;;;3.55;2.42;;;;;;;24.24;34.47;90162.25;4974147;28;20027;-65
2022/04/08 08:53:32;;;;;;;12.43;2.80;;;;;;;23.36;35.84;90164.91;4975929;28;20046;-67
2022/04/08 08:55:58;;;;;;;3.70;2.28;;;;;;;24.13;35.00;90156.94;4982970;28;20050;-66
2022/04/08 08:58:24;;;;;;;3.75;2.20;;;;;;;23.98;34.61;90168.44;4984097;28;20833;-68
2022/04/08 09:00:50;;;;;;;7.88;3.15;;;;;;;23.20;35.84;90162.75;4990441;28;20049;-65
2022/04/08 09:03:15;;;;;;;2.20;1.92;;;;;;;23.78;35.52;90179.94;4985194;28;20037;-66
2022/04/08 09:05:45;;;;;;;6.80;2.20;;;;;;;23.74;34.72;90183.88;4993822;28;20121;-67
2022/04/08 09:08:15;;;;;;;8.13;2.60;;;;;;;23.46;35.31;90177.56;4993523;28;20101;-68
2022/04/08 09:10:46;;;;;;;13.50;2.20;;;;;;;24.31;34.62;90178.50;4990716;28;20034;-68
2022/04/08 09:13:15;;;;;;;9.23;2.60;;;;;;;23.88;34.34;90183.72;4981686;28;20060;-66
2022/04/08 09:15:52;;;;;;;4.28;2.05;;;;;;;23.22;35.19;90182.13;4984142;28;20026;-68
2022/04/08 09:18:17;;;;;;;6.78;3.00;;;;;;;22.58;36.46;90176.50;4982699;28;20034;-66
2022/04/08 09:20:49;;;;;;;5.18;2.25;;;;;;;22.23;37.03;90178.28;4993214;28;20411;-66
2022/04/08 09:23:17;;;;;;;3.03;2.20;;;;;;;22.19;36.82;90182.97;4993372;28;20492;-66
2022/04/08 09:25:43;;;;;;;4.47;2.95;;;;;;;22.38;36.61;90173.53;4990316;28;20531;-66
2022/04/08 09:28:11;;;;;;;11.95;3.30;;;;;;;22.24;35.92;90169.00;4993260;28;20038;-65
2022/04/08 09:30:38;;;;;;;3.92;2.67;;;;;;;22.69;36.86;90174.44;4993088;28;20488;-66
2022/04/08 09:33:12;;;;;;;4.70;2.28;;;;;;;22.14;37.16;90177.22;4993149;28;20116;-69
2022/04/08 09:35:41;;;;;;;;;;;;;;;22.96;35.30;90171.91;4982673;28;20505;-69
2022/04/08 09:38:07;;;;;;;5.88;2.00;;;;;;;23.69;35.50;90171.53;4978837;28;19969;-69
2022/04/08 09:40:36;;;;;;;15.55;4.03;;;;;;;25.90;33.78;90165.25;4984756;28;20143;-68
2022/04/08 09:43:02;;;;;;;10.98;2.83;;;;;;;24.78;33.03;90167.66;4982725;28;20035;-66
2022/04/08 09:45:32;;;;;;;4.07;2.20;;;;;;;23.56;36.23;90179.41;4982023;28;20643;-67
2022/04/08 09:48:00;;;;;;;21.52;3.70;;;;;;;23.41;36.51;90182.69;4992376;28;20038;-67
2022/04/08 09:50:26;;;;;;;26.67;3.95;;;;;;;24.50;36.09;90182.47;4976799;28;20030;-67
2022/04/08 09:52:53;;;;;;;21.77;3.92;;;;;;;23.70;35.88;90183.94;4987206;28;20045;-67
2022/04/08 09:55:19;;;;;;;12.35;2.72;;;;;;;24.70;35.66;90183.31;4982766;28;20039;-67
2022/04/08 09:57:48;;;;;;;31.13;5.50;;;;;;;24.27;35.57;90179.66;4992617;28;20523;-67
2022/04/08 10:00:14;;;;;;;4.15;2.60;;;;;;;23.68;35.25;90185.53;4992215;28;20042;-67
2022/04/08 10:02:44;;;;;;;6.00;2.08;;;;;;;24.58;36.03;90186.59;4992237;28;20160;-68
2022/04/08 10:05:10;;;;;;;11.50;5.28;;;;;;;24.14;34.73;90185.69;4992712;28;20120;-68
2022/04/08 10:07:36;;;;;;;3.58;1.90;;;;;;;24.04;34.95;90186.59;4992862;28;20457;-67
2022/04/08 10:10:17;;;;;;;47.83;5.28;;;;;;;24.55;34.83;90184.72;4991455;28;20503;-67
2022/04/08 10:13:14;;;;;;;26.23;3.83;;;;;;;24.38;34.09;90177.59;4991808;28;20038;-68
2022/04/08 10:15:43;;;;;;;22.05;3.30;;;;;;;24.25;34.64;90163.00;4991444;28;20064;-69
2022/04/08 10:18:09;;;;;;;85.47;6.22;;;;;;;24.57;35.38;90166.03;4980861;28;20138;-65
2022/04/08 10:20:37;;;;;;;2.30;1.70;;;;;;;25.97;34.03;90165.09;4982257;28;20121;-68
2022/04/08 10:23:05;;;;;;;9.50;2.80;;;;;;;26.30;32.56;90156.97;4983033;28;20038;-69
2022/04/08 10:25:41;;;;;;;14.80;3.47;;;;;;;24.98;34.06;90149.44;4972449;28;20070;-70
2022/04/08 10:28:08;;;;;;;11.18;5.43;;;;;;;24.27;34.15;90166.09;4986747;28;20062;-70
2022/04/08 10:30:43;;;;;;;10.50;5.50;;;;;;;24.46;33.89;90154.59;4983852;28;20034;-69
2022/04/08 10:33:08;;;;;;;8.05;3.97;;;;;;;24.22;33.78;90147.53;4984964;28;20035;-70
2022/04/08 10:35:35;;;;;;;33.83;4.72;;;;;;;24.32;33.22;90152.84;4979397;28;20496;-69
2022/04/08 10:38:03;;;;;;;15.85;3.47;;;;;;;25.08;34.15;90147.72;4982874;28;20177;-69
2022/04/08 10:40:34;;;;;;;34.53;3.47;;;;;;;25.82;31.36;90147.50;4980280;28;20117;-69
2022/04/08 10:43:03;;;;;;;15.30;2.88;;;;;;;25.79;31.07;90151.06;4980794;28;20520;-69
2022/04/08 10:45:29;;;;;;;23.10;5.90;;;;;;;25.68;31.18;90151.28;4991098;28;20117;-69
2022/04/08 10:47:59;;;;;;;10.10;2.53;;;;;;;25.06;32.35;90150.09;4987468;28;20129;-69
2022/04/08 10:50:33;;;;;;;7.45;3.80;;;;;;;24.84;32.35;90143.47;4982717;28;20472;-68
2022/04/08 10:53:08;;;;;;;16.52;4.88;;;;;;;24.87;32.88;90148.84;4979932;28;20519;-67
2022/04/08 10:55:46;;;;;;;15.85;3.80;;;;;;;24.84;31.09;90154.34;4972761;28;20122;-69
2022/04/08 10:58:12;;;;;;;9.50;2.67;;;;;;;24.94;31.97;90153.41;4980617;28;20035;-69
2022/04/08 11:00:41;;;;;;;3.85;1.45;;;;;;;24.48;32.94;90177.44;4981233;28;20109;-69
2022/04/08 11:03:10;;;;;;;13.65;2.80;;;;;;;25.14;30.45;90162.41;4985793;28;20390;-71
2022/04/08 11:05:39;;;;;;;4.25;1.90;;;;;;;24.48;31.13;90155.69;4991246;28;20056;-70
2022/04/08 11:08:06;;;;;;;5.72;1.60;;;;;;;23.63;31.95;90148.69;4991569;28;20456;-71
2022/04/08 11:10:31;;;;;;;23.55;6.85;;;;;;;24.39;30.31;90154.69;4977345;28;20093;-69
2022/04/08 11:12:57;;;;;;;3.83;1.55;;;;;;;25.02;28.55;90149.38;4974622;28;20039;-70
2022/04/08 11:15:25;;;;;;;1.70;1.30;;;;;;;24.87;28.05;90154.28;4981453;28;20118;-70
2022/04/08 11:17:52;;;;;;;6.13;1.90;;;;;;;25.67;28.19;90147.00;4971550;28;20552;-68
2022/04/08 11:20:20;;;;;;;2.03;1.13;;;;;;;25.97;27.86;90141.31;4971662;28;20493;-69
2022/04/08 11:22:48;;;;;;;2.90;1.50;;;;;;;26.13;30.43;90139.81;4972169;28;20545;-70
2022/04/08 11:25:21;;;;;;;5.40;1.77;;;;;;;24.93;30.06;90121.91;4971938;28;20043;-67
2022/04/08 11:28:01;;;;;;;4.72;1.85;;;;;;;26.31;28.98;90123.84;4972204;28;20066;-68
2022/04/08 11:30:27;;;;;;;12.30;1.90;;;;;;;25.53;28.63;90139.09;4971434;28;20513;-67
2022/04/08 11:32:53;;;;;;;2.08;1.38;;;;;;;27.22;26.77;90130.25;4972156;28;20066;-68